Time;durP1;ratioP1;P1;durP2;ratioP2;P2;SDS_P1;SDS_P2;PMS_P1;PMS_P2;Temp;Humidity;BMP_temperature;BMP_pressure;BME280_temperature;BME280_humidity;BME280_pressure;Samples;Min_cycle;Max_cycle;Signal;HPM_P1;HPM_P2
2023/08/25 00:02:19;;;;;;;;;12.67;11.67;;;;;22.96;100.00;100757.03;5074673;27;45442;-74
2023/08/25 00:04:46;;;;;;;;;12.00;10.67;;;;;22.92;100.00;100750.25;5085350;27;45616;-73
2023/08/25 00:07:11;;;;;;;;;12.67;11.33;;;;;22.91;100.00;100747.69;5081690;27;48263;-74
2023/08/25 00:09:36;;;;;;;;;9.67;9.67;;;;;23.01;100.00;100764.66;5093242;27;45257;-74
2023/08/25 00:12:03;;;;;;;;;8.33;8.33;;;;;22.97;100.00;100764.09;5095892;27;45362;-74
2023/08/25 00:14:28;;;;;;;;;11.67;11.67;;;;;22.94;100.00;100750.09;5089813;27;45363;-74
2023/08/25 00:16:53;;;;;;;;;10.33;8.67;;;;;22.94;100.00;100752.81;5099721;27;46224;-73
2023/08/25 00:19:19;;;;;;;;;9.67;9.67;;;;;22.91;100.00;100753.94;5098462;27;45326;-74
2023/08/25 00:21:45;;;;;;;;;14.00;11.00;;;;;22.87;100.00;100743.63;5090695;27;45332;-74
2023/08/25 00:24:10;;;;;;;;;8.00;8.00;;;;;22.93;100.00;100748.41;5089050;27;45302;-74
2023/08/25 00:26:37;;;;;;;;;12.00;10.00;;;;;22.86;100.00;100745.47;5093397;27;46006;-74
2023/08/25 00:29:02;;;;;;;;;8.67;8.67;;;;;22.83;100.00;100746.63;5091050;27;45293;-74
2023/08/25 00:31:28;;;;;;;;;9.33;9.33;;;;;22.73;100.00;100723.41;5069318;28;45637;-74
2023/08/25 00:33:54;;;;;;;;;9.67;9.67;;;;;22.79;100.00;100720.97;5082934;27;46076;-74
2023/08/25 00:36:19;;;;;;;;;9.33;8.33;;;;;22.79;100.00;100725.50;5092952;27;45385;-74
2023/08/25 00:38:44;;;;;;;;;10.67;7.33;;;;;22.71;100.00;100712.75;5096136;27;45308;-74
2023/08/25 00:41:10;;;;;;;;;8.67;8.67;;;;;22.65;100.00;100694.47;5079714;28;45305;-74
2023/08/25 00:43:35;;;;;;;;;9.33;8.00;;;;;22.73;100.00;100704.53;5062088;28;50288;-74
2023/08/25 00:46:01;;;;;;;;;9.00;9.00;;;;;22.71;100.00;100703.81;5090475;27;45529;-73
2023/08/25 00:48:28;;;;;;;;;7.00;7.00;;;;;22.81;100.00;100723.47;5097061;27;45489;-73
2023/08/25 00:50:53;;;;;;;;;7.33;7.00;;;;;22.74;100.00;100719.72;5078759;27;45324;-74
2023/08/25 00:53:20;;;;;;;;;9.00;8.00;;;;;22.73;100.00;100712.63;5084712;27;45431;-73
2023/08/25 00:55:45;;;;;;;;;8.33;8.33;;;;;22.75;100.00;100727.66;5089887;27;45355;-74
2023/08/25 00:58:14;;;;;;;;;9.67;9.00;;;;;22.55;100.00;100695.53;5081399;27;45390;-73
2023/08/25 01:00:39;;;;;;;;;7.33;7.33;;;;;22.73;100.00;100728.81;5086046;27;45484;-73
2023/08/25 01:03:04;;;;;;;;;9.00;8.00;;;;;22.72;100.00;100732.50;5085832;27;45445;-73
2023/08/25 01:05:30;;;;;;;;;5.67;5.67;;;;;22.71;100.00;100741.56;5079305;27;45428;-73
2023/08/25 01:07:57;;;;;;;;;9.00;9.00;;;;;22.60;100.00;100722.91;5083240;27;45375;-73
2023/08/25 01:10:28;;;;;;;;;9.00;8.00;;;;;22.61;100.00;100716.50;5082540;27;45276;-73
2023/08/25 01:13:04;;;;;;;;;12.00;10.00;;;;;22.54;100.00;100707.34;5093914;27;45284;-74
2023/08/25 01:15:32;;;;;;;;;9.33;9.33;;;;;22.55;100.00;100720.63;5094308;27;46128;-73
2023/08/25 01:18:22;;;;;;;;;10.67;10.67;;;;;22.64;100.00;100733.22;5082042;27;45501;-73
2023/08/25 01:20:48;;;;;;;;;10.67;9.67;;;;;22.55;100.00;100719.78;5078820;27;46683;-74
2023/08/25 01:23:37;;;;;;;;;6.67;6.67;;;;;22.44;100.00;100715.47;5091462;27;45297;-74
2023/08/25 01:26:03;;;;;;;;;11.00;9.67;;;;;22.42;100.00;100703.97;5088935;27;45537;-73
2023/08/25 01:28:29;;;;;;;;;10.33;10.33;;;;;22.46;100.00;100712.63;5091918;27;45576;-73
2023/08/25 01:30:56;;;;;;;;;9.00;9.00;;;;;22.58;100.00;100741.06;5085675;27;45381;-73
2023/08/25 01:33:30;;;;;;;;;11.33;11.33;;;;;22.57;100.00;100728.59;5087447;27;45701;-73
2023/08/25 01:36:05;;;;;;;;;11.67;10.67;;;;;22.56;100.00;100733.13;5083192;27;46068;-73
2023/08/25 01:39:01;;;;;;;;;10.00;10.00;;;;;22.56;100.00;100721.50;5089931;27;45284;-73
2023/08/25 01:41:33;;;;;;;;;5.33;5.33;;;;;22.54;100.00;100721.66;5077656;27;45434;-73
2023/08/25 01:44:02;;;;;;;;;9.33;8.00;;;;;22.51;100.00;100707.63;5091251;27;46444;-73
2023/08/25 01:46:30;;;;;;;;;8.00;8.00;;;;;22.61;100.00;100719.22;5092788;27;45634;-73
2023/08/25 01:48:58;;;;;;;;;13.00;10.00;;;;;22.59;100.00;100705.00;5089954;27;45447;-73
2023/08/25 01:51:24;;;;;;;;;8.00;8.00;;;;;22.65;100.00;100717.88;5089132;27;45577;-74
2023/08/25 01:53:54;;;;;;;;;11.00;11.00;;;;;22.55;100.00;100692.84;5089309;27;45416;-74
2023/08/25 01:56:19;;;;;;;;;12.67;11.67;;;;;22.65;100.00;100709.78;5083457;27;46622;-73
2023/08/25 01:58:45;;;;;;;;;8.67;7.67;;;;;22.66;100.00;100722.31;5098621;27;45539;-74
2023/08/25 02:01:10;;;;;;;;;9.33;9.00;;;;;22.60;100.00;100722.91;5086572;27;45409;-74
2023/08/25 02:03:36;;;;;;;;;12.67;10.00;;;;;22.53;100.00;100702.94;5089823;27;45560;-74
2023/08/25 02:06:01;;;;;;;;;12.67;10.00;;;;;22.50;100.00;100704.09;5086255;27;46063;-74
2023/08/25 02:08:26;;;;;;;;;8.00;8.00;;;;;22.61;100.00;100719.22;5090354;27;45482;-73
2023/08/25 02:10:52;;;;;;;;;11.67;11.00;;;;;22.57;100.00;100715.13;5083800;27;45456;-73
2023/08/25 02:13:18;;;;;;;;;13.67;9.67;;;;;22.55;100.00;100714.41;5095614;27;45397;-73
2023/08/25 02:15:45;;;;;;;;;11.00;10.00;;;;;22.51;100.00;100718.41;5092857;27;45492;-74
2023/08/25 02:18:11;;;;;;;;;10.00;10.00;;;;;22.59;100.00;100721.19;5089028;27;45301;-74
2023/08/25 02:20:38;;;;;;;;;10.00;10.00;;;;;22.54;100.00;100704.63;5089616;27;45304;-73
2023/08/25 02:23:04;;;;;;;;;9.33;8.67;;;;;22.45;100.00;100692.91;5088895;27;45353;-73
2023/08/25 02:25:29;;;;;;;;;7.67;6.67;;;;;22.56;100.00;100689.16;5089383;27;45280;-73
2023/08/25 02:27:56;;;;;;;;;13.00;12.00;;;;;22.57;100.00;100697.09;5098686;27;45371;-74
2023/08/25 02:30:22;;;;;;;;;13.67;13.00;;;;;22.57;100.00;100698.94;5100241;27;45384;-74
2023/08/25 02:32:47;;;;;;;;;11.67;11.00;;;;;22.62;100.00;100688.53;5092591;27;44843;-73
2023/08/25 02:35:12;;;;;;;;;21.33;17.33;;;;;22.60;100.00;100663.59;5088173;27;46020;-73
2023/08/25 02:37:55;;;;;;;;;19.33;17.33;;;;;22.60;100.00;100652.81;5099249;27;45350;-73
2023/08/25 02:40:20;;;;;;;;;17.67;14.67;;;;;22.68;100.00;100659.16;5088997;27;45414;-74
2023/08/25 02:42:45;;;;;;;;;22.00;17.33;;;;;22.66;100.00;100652.22;5094959;27;53236;-74
2023/08/25 02:45:11;;;;;;;;;18.00;16.00;;;;;22.74;100.00;100650.44;5095173;27;46442;-73
2023/08/25 02:47:36;;;;;;;;;18.67;18.00;;;;;22.71;100.00;100639.09;5092081;27;51209;-74
2023/08/25 02:50:03;;;;;;;;;17.33;16.67;;;;;22.76;100.00;100653.84;5086129;27;45967;-73
2023/08/25 02:52:28;;;;;;;;;19.67;18.00;;;;;22.68;100.00;100634.03;5098277;27;45518;-73
2023/08/25 02:54:53;;;;;;;;;16.33;16.33;;;;;22.70;100.00;100626.66;5087330;27;45636;-73
2023/08/25 02:57:19;;;;;;;;;14.33;14.33;;;;;22.76;100.00;100642.22;5094005;27;45347;-74
2023/08/25 02:59:44;;;;;;;;;20.00;19.33;;;;;22.75;100.00;100643.19;5089496;27;45466;-74
2023/08/25 03:02:09;;;;;;;;;18.00;16.67;;;;;22.61;100.00;100619.47;5091305;27;45522;-74
2023/08/25 03:04:35;;;;;;;;;21.67;19.00;;;;;22.79;100.00;100645.44;5089740;27;45293;-74
2023/08/25 03:07:00;;;;;;;;;18.67;16.67;;;;;22.70;100.00;100623.97;5080288;27;45315;-74
2023/08/25 03:09:26;;;;;;;;;19.67;18.67;;;;;22.74;100.00;100639.66;5094382;27;45435;-74
2023/08/25 03:11:51;;;;;;;;;18.33;17.00;;;;;22.70;100.00;100632.03;5098471;27;45343;-74
2023/08/25 03:14:18;;;;;;;;;20.00;18.67;;;;;22.77;100.00;100660.09;5093303;27;45583;-73
2023/08/25 03:16:43;;;;;;;;;16.00;16.00;;;;;22.87;100.00;100693.22;5091286;27;45290;-74
2023/08/25 03:19:09;;;;;;;;;25.67;23.67;;;;;22.89;100.00;100696.59;5083692;27;45398;-74
2023/08/25 03:21:34;;;;;;;;;26.00;25.00;;;;;22.92;100.00;100695.44;5082484;27;45616;-74
2023/08/25 03:24:00;;;;;;;;;23.67;23.33;;;;;22.87;100.00;100689.69;5089881;27;45321;-73
2023/08/25 03:26:26;;;;;;;;;37.00;32.00;;;;;22.89;100.00;100698.47;5090828;27;45980;-74
2023/08/25 03:28:52;;;;;;;;;33.33;29.00;;;;;22.94;100.00;100715.88;5090532;27;45470;-73
2023/08/25 03:31:17;;;;;;;;;37.67;32.33;;;;;22.96;100.00;100719.28;5095477;27;45532;-73
2023/08/25 03:33:43;;;;;;;;;31.67;29.33;;;;;22.93;100.00;100724.13;5082673;27;45593;-73
2023/08/25 03:36:08;;;;;;;;;31.00;30.00;;;;;22.93;100.00;100721.44;5071417;27;45577;-74
2023/08/25 03:38:33;;;;;;;;;42.67;31.00;;;;;22.90;100.00;100706.41;5094052;27;45477;-74
2023/08/25 03:40:59;;;;;;;;;33.67;31.33;;;;;23.02;100.00;100710.56;5097657;27;45409;-74
2023/08/25 03:43:24;;;;;;;;;38.00;32.33;;;;;22.99;100.00;100710.88;5090987;27;45807;-73
2023/08/25 03:45:50;;;;;;;;;32.33;29.67;;;;;22.91;100.00;100696.44;5096603;27;45364;-73
2023/08/25 03:48:15;;;;;;;;;36.00;32.67;;;;;22.99;100.00;100701.94;5088278;27;45435;-74
2023/08/25 03:50:45;;;;;;;;;32.67;30.00;;;;;23.06;100.00;100711.09;5084091;27;49459;-73
2023/08/25 03:53:10;;;;;;;;;34.67;32.33;;;;;23.06;100.00;100701.16;5096219;27;45871;-73
2023/08/25 03:55:36;;;;;;;;;42.25;35.75;;;;;22.99;100.00;100688.44;5091837;27;45425;-73
2023/08/25 03:58:01;;;;;;;;;41.00;32.00;;;;;23.00;100.00;100676.66;5087901;27;45778;-73
2023/08/25 04:00:26;;;;;;;;;38.00;34.33;;;;;23.04;100.00;100683.41;5088352;27;45515;-74
2023/08/25 04:02:51;;;;;;;;;37.33;34.00;;;;;23.06;100.00;100698.47;5093749;27;46299;-73
2023/08/25 04:05:17;;;;;;;;;38.67;32.33;;;;;23.05;100.00;100707.56;5084241;27;45351;-74
2023/08/25 04:07:42;;;;;;;;;38.67;33.33;;;;;23.06;100.00;100716.50;5090968;27;45608;-73
2023/08/25 04:10:08;;;;;;;;;38.33;34.33;;;;;23.02;100.00;100699.78;5099317;27;45642;-73
2023/08/25 04:12:33;;;;;;;;;42.25;33.25;;;;;23.04;100.00;100695.06;5089264;27;45292;-73
2023/08/25 04:14:58;;;;;;;;;42.67;34.00;;;;;23.10;100.00;100702.53;5089198;27;45288;-73
2023/08/25 04:17:24;;;;;;;;;37.00;33.33;;;;;23.08;100.00;100691.06;5089012;27;45294;-73
2023/08/25 04:19:49;;;;;;;;;45.67;36.67;;;;;23.08;100.00;100701.00;5091724;27;45367;-73
2023/08/25 04:22:14;;;;;;;;;37.00;32.67;;;;;23.08;100.00;100690.19;5089951;27;45667;-73
2023/08/25 04:24:40;;;;;;;;;44.25;35.50;;;;;23.08;100.00;100671.31;5088372;27;49361;-73
2023/08/25 04:27:05;;;;;;;;;46.00;36.75;;;;;23.11;100.00;100676.41;5090113;27;45488;-73
2023/08/25 04:29:30;;;;;;;;;48.25;40.25;;;;;23.08;100.00;100669.47;5086807;27;45436;-72
2023/08/25 04:31:56;;;;;;;;;46.25;37.50;;;;;23.12;100.00;100678.97;5087329;27;46666;-73
2023/08/25 04:34:21;;;;;;;;;39.75;33.50;;;;;23.01;100.00;100664.84;5082492;27;45642;-72
2023/08/25 04:36:46;;;;;;;;;48.50;40.00;;;;;22.92;100.00;100642.34;5092568;27;45791;-73
2023/08/25 04:39:13;;;;;;;;;45.50;36.50;;;;;23.05;100.00;100667.09;5085740;27;48782;-73
2023/08/25 04:41:39;;;;;;;;;46.25;38.50;;;;;23.09;100.00;100656.84;5093191;27;45400;-74
2023/08/25 04:44:06;;;;;;;;;46.00;38.00;;;;;23.06;100.00;100652.59;5086970;27;45393;-72
2023/08/25 04:46:31;;;;;;;;;45.25;38.00;;;;;23.14;100.00;100676.94;5091640;27;45567;-73
2023/08/25 04:48:57;;;;;;;;;43.00;36.50;;;;;23.08;100.00;100666.78;5089559;27;45573;-73
2023/08/25 04:51:22;;;;;;;;;46.50;40.00;;;;;23.11;100.00;100677.25;5082752;27;45316;-74
2023/08/25 04:53:47;;;;;;;;;43.25;35.25;;;;;23.03;100.00;100654.75;5087810;27;45387;-74
2023/08/25 04:56:12;;;;;;;;;53.25;41.25;;;;;23.08;100.00;100674.88;5082943;27;45479;-73
2023/08/25 04:58:38;;;;;;;;;50.25;40.00;;;;;23.08;100.00;100682.97;5090320;27;45564;-73
2023/08/25 05:01:04;;;;;;;;;49.25;40.25;;;;;23.06;100.00;100676.88;5086829;27;45515;-73
2023/08/25 05:03:30;;;;;;;;;51.25;42.00;;;;;22.89;100.00;100645.38;5089631;27;45466;-74
2023/08/25 05:05:55;;;;;;;;;44.00;38.75;;;;;22.93;100.00;100649.44;5081713;27;45381;-74
2023/08/25 05:08:21;;;;;;;;;43.75;36.75;;;;;22.91;100.00;100646.03;5091491;27;45685;-74
2023/08/25 05:10:46;;;;;;;;;48.75;40.25;;;;;22.87;100.00;100642.00;5091292;27;45337;-74
2023/08/25 05:13:11;;;;;;;;;45.50;38.25;;;;;23.00;100.00;100658.63;5076695;28;45528;-73
2023/08/25 05:15:36;;;;;;;;;49.25;39.25;;;;;22.88;100.00;100630.19;5077928;28;45374;-74
2023/08/25 05:18:02;;;;;;;;;44.75;39.50;;;;;23.00;100.00;100638.88;5079523;28;45222;-74
2023/08/25 05:20:27;;;;;;;;;45.25;38.50;;;;;23.02;100.00;100672.78;5089081;27;46551;-74
2023/08/25 05:22:53;;;;;;;;;47.50;34.50;;;;;22.77;100.00;100636.66;5081030;27;45318;-74
2023/08/25 05:25:21;;;;;;;;;44.25;37.75;;;;;22.92;100.00;100663.94;5087478;27;45394;-74
2023/08/25 05:27:47;;;;;;;;;44.50;36.00;;;;;;;;5092750;27;45451;-76
2023/08/25 05:30:13;;;;;;;;;44.33;36.67;;;;;22.86;100.00;100663.69;5078929;27;46400;-74
2023/08/25 05:32:38;;;;;;;;;49.00;40.00;;;;;22.85;100.00;100662.84;5097447;27;45367;-74
2023/08/25 05:35:04;;;;;;;;;45.25;37.00;;;;;22.81;100.00;100669.53;5080393;27;45302;-75
2023/08/25 05:37:29;;;;;;;;;47.25;37.25;;;;;22.77;100.00;100668.19;5080316;27;45500;-75
2023/08/25 05:39:55;;;;;;;;;47.00;39.00;;;;;22.76;100.00;100682.66;5071388;27;47201;-74
2023/08/25 05:42:20;;;;;;;;;46.25;38.25;;;;;22.78;100.00;100704.91;5096304;27;45316;-73
2023/08/25 05:44:45;;;;;;;;;54.50;42.75;;;;;22.77;100.00;100703.25;5065648;28;45427;-74
2023/08/25 05:47:11;;;;;;;;;47.75;40.50;;;;;22.77;100.00;100705.94;5079071;27;46296;-74
2023/08/25 05:49:36;;;;;;;;;40.50;35.50;;;;;22.83;100.00;100713.41;5080681;27;47225;-74
2023/08/25 05:52:02;;;;;;;;;39.50;35.50;;;;;22.68;100.00;100704.13;5090758;27;45233;-74
2023/08/25 05:54:27;;;;;;;;;43.00;37.00;;;;;22.77;100.00;100724.81;5080103;27;45420;-73
2023/08/25 05:56:56;;;;;;;;;41.00;34.75;;;;;22.60;100.00;100694.09;5096205;27;45500;-77
2023/08/25 05:59:21;;;;;;;;;42.00;35.67;;;;;22.78;100.00;100716.56;5082138;27;47358;-77
2023/08/25 06:01:46;;;;;;;;;42.75;35.00;;;;;22.80;100.00;100721.81;5083392;27;45299;-77
2023/08/25 06:04:12;;;;;;;;;39.00;33.00;;;;;22.77;100.00;100714.84;5093211;27;45381;-77
2023/08/25 06:06:38;;;;;;;;;37.00;32.33;;;;;22.67;100.00;100688.97;5085826;27;45360;-74
2023/08/25 06:09:08;;;;;;;;;38.00;33.33;;;;;22.70;100.00;100686.81;5084534;27;45514;-74
2023/08/25 06:11:33;;;;;;;;;41.67;33.67;;;;;22.73;100.00;100691.06;5078751;27;45434;-74
2023/08/25 06:13:59;;;;;;;;;33.67;32.33;;;;;22.68;100.00;100690.66;5094024;27;45249;-74
2023/08/25 06:16:26;;;;;;;;;40.00;33.67;;;;;22.58;100.00;100663.72;5094543;27;45388;-77
2023/08/25 06:18:51;;;;;;;;;41.00;33.67;;;;;22.72;100.00;100705.53;5082134;27;48327;-77
2023/08/25 06:21:17;;;;;;;;;47.00;34.33;;;;;22.67;100.00;100691.66;5068635;27;45546;-75
2023/08/25 06:23:42;;;;;;;;;32.67;30.33;;;;;22.73;100.00;100718.03;5102655;27;45288;-74
2023/08/25 06:26:07;;;;;;;;;34.00;30.00;;;;;22.66;100.00;100709.69;5089572;27;45526;-75
2023/08/25 06:28:33;;;;;;;;;31.67;27.67;;;;;22.65;100.00;100707.09;5101510;27;45891;-74
2023/08/25 06:30:59;;;;;;;;;31.67;26.00;;;;;22.55;100.00;100688.28;5101537;27;45310;-74
2023/08/25 06:33:29;;;;;;;;;30.33;26.33;;;;;22.67;100.00;100716.78;5093071;27;45391;-74
2023/08/25 06:35:55;;;;;;;;;28.33;27.00;;;;;22.55;100.00;100709.00;5079112;27;45594;-76
2023/08/25 06:38:20;;;;;;;;;22.67;22.67;;;;;22.61;100.00;100724.59;5094287;27;46445;-76
2023/08/25 06:40:47;;;;;;;;;26.00;24.67;;;;;22.64;100.00;100725.13;5095315;27;45259;-77
2023/08/25 06:43:12;;;;;;;;;25.33;23.67;;;;;22.64;100.00;100710.81;5091807;27;45383;-77
2023/08/25 06:45:38;;;;;;;;;25.00;23.67;;;;;22.61;100.00;100716.50;5086229;27;45579;-75
2023/08/25 06:48:04;;;;;;;;;27.00;25.33;;;;;22.48;100.00;100699.84;5085140;27;46047;-74
2023/08/25 06:50:30;;;;;;;;;25.00;24.33;;;;;22.41;100.00;100682.59;5088371;27;45469;-74
2023/08/25 06:52:55;;;;;;;;;29.67;24.67;;;;;22.53;100.00;100689.44;5102291;27;45418;-74
2023/08/25 06:55:22;;;;;;;;;27.33;27.00;;;;;22.50;100.00;100687.91;5093128;27;45306;-77
2023/08/25 06:57:48;;;;;;;;;27.33;24.67;;;;;22.43;100.00;100678.72;5093964;27;46177;-76
2023/08/25 07:00:16;;;;;;;;;26.33;22.67;;;;;22.63;100.00;100719.91;5079358;27;45236;-76
2023/08/25 07:02:43;;;;;;;;;21.00;19.33;;;;;22.63;100.00;100720.75;5091392;27;45321;-76
2023/08/25 07:05:09;;;;;;;;;17.67;17.67;;;;;22.56;100.00;100690.00;5090067;27;45519;-75
2023/08/25 07:07:36;;;;;;;;;17.33;14.67;;;;;22.70;100.00;100705.69;5085874;27;45335;-77
2023/08/25 07:10:01;;;;;;;;;22.33;17.33;;;;;22.65;100.00;100688.22;5095717;27;46074;-75
2023/08/25 07:12:27;;;;;;;;;17.33;17.33;;;;;22.63;100.00;100674.06;5105154;27;45394;-76
2023/08/25 07:14:53;;;;;;;;;16.33;14.67;;;;;22.63;100.00;100669.53;5101606;27;45271;-76
2023/08/25 07:17:18;;;;;;;;;19.33;17.67;;;;;22.68;100.00;100669.94;5077740;27;47597;-74
2023/08/25 07:19:44;;;;;;;;;16.33;14.33;;;;;22.88;100.00;100700.28;5092758;27;45242;-76
2023/08/25 07:22:10;;;;;;;;;15.67;15.67;;;;;22.76;100.00;100670.03;5089977;27;45433;-74
2023/08/25 07:24:35;;;;;;;;;14.00;13.33;;;;;22.91;100.00;100683.81;5072106;27;45453;-76
2023/08/25 07:27:01;;;;;;;;;17.67;14.33;;;;;22.91;100.00;100677.56;5094548;27;45388;-76
2023/08/25 07:29:26;;;;;;;;;16.33;15.33;;;;;23.10;100.00;100702.53;5093208;27;45335;-74
2023/08/25 07:31:52;;;;;;;;;14.33;12.33;;;;;23.14;100.00;100708.47;5081251;27;45556;-74
2023/08/25 07:34:18;;;;;;;;;14.67;13.67;;;;;23.04;100.00;100711.25;5093412;27;45504;-74
2023/08/25 07:36:43;;;;;;;;;16.00;15.00;;;;;23.05;100.00;100723.75;5100974;27;45462;-74
2023/08/25 07:39:08;;;;;;;;;13.00;13.00;;;;;22.99;100.00;100729.75;5080344;27;46034;-76
2023/08/25 07:41:34;;;;;;;;;18.33;14.00;;;;;22.93;100.00;100732.22;5081887;27;45416;-74
2023/08/25 07:43:59;;;;;;;;;18.67;16.67;;;;;22.80;100.00;100729.91;5085171;27;45486;-74
2023/08/25 07:46:25;;;;;;;;;14.67;14.00;;;;;22.82;100.00;100744.06;5081745;27;46133;-74
2023/08/25 07:48:50;;;;;;;;;17.33;16.00;;;;;22.63;100.00;100719.91;5084714;27;45438;-77
2023/08/25 07:51:16;;;;;;;;;15.67;13.67;;;;;22.75;100.00;100746.53;5083245;27;45427;-74
2023/08/25 07:53:42;;;;;;;;;12.67;11.33;;;;;22.58;100.00;100732.97;5077638;27;45574;-73
2023/08/25 07:56:07;;;;;;;;;9.67;9.67;;;;;22.66;100.00;100751.97;5098549;27;45468;-74
2023/08/25 07:58:33;;;;;;;;;6.67;6.67;;;;;22.53;100.00;100763.09;5087392;27;45288;-74
2023/08/25 08:00:58;;;;;;;;;5.00;5.00;;;;;22.46;100.00;100761.13;5098228;27;45359;-74
2023/08/25 08:03:24;;;;;;;;;5.00;5.00;;;;;22.24;100.00;100738.97;5093375;27;45544;-74
2023/08/25 08:05:49;;;;;;;;;5.00;5.00;;;;;22.34;100.00;100760.50;5095130;27;45198;-74
2023/08/25 08:08:14;;;;;;;;;5.00;5.00;;;;;22.20;100.00;100742.09;5086591;27;45276;-74
2023/08/25 08:10:40;;;;;;;;;5.00;5.00;;;;;22.34;100.00;100773.97;5087897;27;45596;-74
2023/08/25 08:13:06;;;;;;;;;4.67;4.67;;;;;22.19;100.00;100749.34;5087075;27;45551;-74
2023/08/25 08:15:31;;;;;;;;;4.67;4.67;;;;;22.35;100.00;100781.03;5100313;27;46314;-74
2023/08/25 08:17:58;;;;;;;;;7.00;5.00;;;;;22.20;100.00;100744.81;5081290;27;45608;-74
2023/08/25 08:20:24;;;;;;;;;4.67;4.00;;;;;22.19;100.00;100754.72;5085718;27;45458;-74
2023/08/25 08:22:50;;;;;;;;;0.67;0.67;;;;;22.31;100.00;100771.56;5077096;27;45627;-74
2023/08/25 08:25:16;;;;;;;;;2.67;2.67;;;;;22.36;100.00;100785.44;5084675;27;45421;-74
2023/08/25 08:27:42;;;;;;;;;4.67;2.00;;;;;22.24;100.00;100765.06;5081223;27;45426;-74
2023/08/25 08:30:09;;;;;;;;;3.00;3.00;;;;;22.26;100.00;100777.38;5096990;27;45364;-74
2023/08/25 08:32:35;;;;;;;;;3.67;2.33;;;;;22.12;100.00;100771.66;5100271;27;45552;-74
2023/08/25 08:35:01;;;;;;;;;3.00;3.00;;;;;22.31;100.00;100801.22;5089556;27;45380;-74
2023/08/25 08:37:26;;;;;;;;;1.67;1.67;;;;;22.27;100.00;100808.75;5093555;27;45321;-74
2023/08/25 08:39:51;;;;;;;;;1.33;1.00;;;;;22.13;100.00;100789.50;5084110;27;45433;-74
2023/08/25 08:42:17;;;;;;;;;2.00;0.00;;;;;22.23;100.00;100814.56;5070301;28;45598;-75
2023/08/25 08:44:47;;;;;;;;;1.00;1.00;;;;;22.25;100.00;100829.56;5087685;27;45317;-74
2023/08/25 08:47:13;;;;;;;;;1.00;1.00;;;;;22.24;100.00;100825.19;5093789;27;45589;-74
2023/08/25 08:49:40;;;;;;;;;1.00;1.00;;;;;22.17;100.00;100820.53;5088969;27;45246;-74
2023/08/25 08:52:06;;;;;;;;;3.00;3.00;;;;;22.20;100.00;100822.94;5092787;27;45359;-74
2023/08/25 08:54:32;;;;;;;;;1.67;1.00;;;;;22.06;100.00;100813.47;5093088;27;46781;-75
2023/08/25 08:56:59;;;;;;;;;3.67;2.00;;;;;22.28;100.00;100828.47;5088455;27;45505;-74
2023/08/25 08:59:25;;;;;;;;;3.00;1.00;;;;;22.26;100.00;100811.56;5081819;27;45361;-74
2023/08/25 09:01:52;;;;;;;;;1.33;1.33;;;;;22.26;100.00;100812.41;5092835;27;45379;-74
2023/08/25 09:04:20;;;;;;;;;1.67;1.67;;;;;22.38;100.00;100837.38;5080177;27;46221;-74
2023/08/25 09:06:51;;;;;;;;;2.67;2.67;;;;;22.38;100.00;100814.94;5076249;27;45456;-74
2023/08/25 09:09:19;;;;;;;;;1.33;1.33;;;;;22.62;100.00;100834.97;5100177;27;45288;-74
2023/08/25 09:11:45;;;;;;;;;2.67;2.00;;;;;22.63;100.00;100830.44;5087457;27;45237;-74
2023/08/25 09:14:11;;;;;;;;;2.00;2.00;;;;;22.69;100.00;100838.81;5069276;28;48128;-74
2023/08/25 09:16:36;;;;;;;;;3.00;2.00;;;;;22.67;100.00;100829.19;5092693;27;45455;-74
2023/08/25 09:19:03;;;;;;;;;5.33;2.00;;;;;22.83;100.00;100837.47;5099924;27;45508;-74
2023/08/25 09:21:30;;;;;;;;;3.00;3.00;;;;;22.67;100.00;100813.84;5087684;27;45464;-74
2023/08/25 09:23:59;;;;;;;;;2.00;2.00;;;;;22.93;100.00;100848.22;5090163;27;45539;-74
2023/08/25 09:26:24;;;;;;;;;1.00;1.00;;;;;;;;5101180;27;45216;-74
2023/08/25 09:28:53;;;;;;;;;3.67;2.00;;;;;22.91;100.00;100831.31;5102889;27;45244;-74
2023/08/25 09:31:22;;;;;;;;;5.33;3.00;;;;;22.94;100.00;100847.22;5083013;27;45892;-74
2023/08/25 09:33:50;;;;;;;;;2.00;2.00;;;;;22.89;100.00;100841.41;5084544;27;48290;-74
2023/08/25 09:36:16;;;;;;;;;2.67;2.33;;;;;23.02;100.00;100868.88;5086648;27;45274;-74
2023/08/25 09:38:46;;;;;;;;;1.00;1.00;;;;;22.88;100.00;100851.34;5092943;27;45357;-74
2023/08/25 09:41:12;;;;;;;;;6.00;3.00;;;;;22.91;96.49;100850.19;5089019;27;45470;-74
2023/08/25 09:43:40;;;;;;;;;4.00;2.67;;;;;22.97;99.30;100871.19;5087170;27;45300;-74
2023/08/25 09:46:09;;;;;;;;;3.00;3.00;;;;;22.94;96.78;100874.19;5093938;27;45414;-74
2023/08/25 09:48:35;;;;;;;;;5.00;3.00;;;;;22.86;95.29;100864.16;5092783;27;45379;-74
2023/08/25 09:51:01;;;;;;;;;6.33;4.00;;;;;22.99;95.03;100878.13;5091803;27;45305;-74
2023/08/25 09:53:31;;;;;;;;;2.00;2.00;;;;;22.81;100.00;100856.50;5097819;27;46217;-74
2023/08/25 09:56:04;;;;;;;;;3.67;3.67;;;;;23.00;99.95;100879.84;5079927;27;45954;-74
2023/08/25 09:58:30;;;;;;;;;5.00;3.00;;;;;22.90;100.00;100854.75;5099482;27;45395;-74
2023/08/25 10:00:56;;;;;;;;;6.67;4.00;;;;;22.87;96.59;100868.56;5080616;27;45599;-74
2023/08/25 10:03:22;;;;;;;;;2.67;2.67;;;;;22.88;100.00;100866.66;5094323;27;45459;-74
2023/08/25 10:05:48;;;;;;;;;2.00;2.00;;;;;22.98;98.88;100875.56;5096452;27;45410;-74
2023/08/25 10:08:14;;;;;;;;;5.67;3.67;;;;;23.00;95.31;100893.31;5096990;27;45399;-74
2023/08/25 10:10:43;;;;;;;;;2.33;2.33;;;;;23.04;95.33;100881.22;5098244;27;45534;-74
2023/08/25 10:13:12;;;;;;;;;4.33;4.00;;;;;22.93;92.74;100853.59;5077381;27;47171;-74
2023/08/25 10:15:40;;;;;;;;;3.00;2.00;;;;;23.04;94.64;100867.72;5089873;27;45354;-74
2023/08/25 10:18:08;;;;;;;;;7.33;5.00;;;;;22.99;94.23;100853.00;5088175;27;45305;-75
2023/08/25 10:20:37;;;;;;;;;3.00;2.00;;;;;23.02;91.86;100858.94;5079422;27;45448;-75
2023/08/25 10:23:09;;;;;;;;;0.00;0.00;;;;;23.16;90.14;100877.34;5096755;27;46461;-74
2023/08/25 10:25:37;;;;;;;;;4.33;4.33;;;;;23.09;93.00;100876.22;5094890;27;45335;-74
2023/08/25 10:28:05;;;;;;;;;5.00;3.67;;;;;23.10;94.22;100877.91;5087982;27;45517;-75
2023/08/25 10:30:32;;;;;;;;;3.33;3.33;;;;;22.97;89.96;100869.31;5074735;27;46249;-75
2023/08/25 10:33:09;;;;;;;;;2.00;2.00;;;;;22.89;91.41;100866.53;5098407;27;45256;-75
2023/08/25 10:35:43;;;;;;;;;3.33;3.33;;;;;22.86;92.56;100872.22;5088816;27;45411;-75
2023/08/25 10:38:17;;;;;;;;;2.67;2.67;;;;;22.91;91.47;100896.03;5089227;27;45339;-75
2023/08/25 10:40:48;;;;;;;;;4.00;4.00;;;;;22.86;94.16;100883.03;5083320;27;45245;-74
2023/08/25 10:43:13;;;;;;;;;4.00;3.00;;;;;22.91;92.43;100894.19;5080713;27;47426;-74
2023/08/25 10:45:38;;;;;;;;;4.67;3.00;;;;;22.83;97.68;100883.31;5092699;27;45362;-75
2023/08/25 10:48:04;;;;;;;;;2.00;1.67;;;;;22.77;97.51;100881.22;5081071;27;45419;-75
2023/08/25 10:50:30;;;;;;;;;6.00;5.00;;;;;22.72;98.93;100880.81;5099333;27;45315;-75
2023/08/25 10:52:55;;;;;;;;;4.00;4.00;;;;;22.87;98.35;100897.38;5084150;27;45598;-74
2023/08/25 10:55:32;;;;;;;;;6.67;5.67;;;;;22.88;100.00;100893.66;5072621;27;45378;-75
2023/08/25 10:58:05;;;;;;;;;5.00;5.00;;;;;22.88;98.01;100897.19;5102210;27;45266;-74
2023/08/25 11:00:43;;;;;;;;;4.67;4.67;;;;;22.80;98.13;100886.31;5094833;27;45387;-74
2023/08/25 11:03:09;;;;;;;;;7.00;7.00;;;;;22.75;98.55;100873.28;5097993;27;47997;-75
2023/08/25 11:05:34;;;;;;;;;7.33;4.67;;;;;22.96;96.85;100889.22;5091574;27;45306;-74
2023/08/25 11:08:26;;;;;;;;;6.33;4.67;;;;;23.00;96.04;100893.31;5098012;27;45291;-74